createdAt,value
2019-03-09T00:01:49.802Z,12.93
2019-03-09T00:04:20.699Z,10.18
2019-03-09T00:06:51.679Z,10.08
2019-03-09T00:09:22.669Z,14.10
2019-03-09T00:11:53.631Z,13.95
2019-03-09T00:14:24.737Z,7.47
2019-03-09T00:16:56.005Z,11.93
2019-03-09T00:19:27.166Z,14.50
2019-03-09T00:21:58.142Z,15.87
2019-03-09T00:24:33.880Z,12.20
2019-03-09T00:27:11.078Z,14.15
2019-03-09T00:29:43.631Z,12.00
2019-03-09T00:32:15.967Z,14.28
2019-03-09T00:34:47.082Z,13.00
2019-03-09T00:37:18.238Z,11.73
2019-03-09T00:39:49.596Z,19.52
2019-03-09T00:42:20.450Z,13.88
2019-03-09T00:44:51.731Z,14.97
2019-03-09T00:47:22.702Z,17.53
2019-03-09T00:49:53.772Z,18.83
2019-03-09T00:52:24.847Z,15.60
2019-03-09T00:54:56.783Z,14.97
2019-03-09T00:57:27.618Z,14.35
2019-03-09T00:59:58.619Z,16.97
2019-03-09T01:02:29.651Z,16.30
2019-03-09T01:05:00.965Z,13.10
2019-03-09T01:07:32.056Z,15.43
2019-03-09T01:10:03.359Z,12.90
2019-03-09T01:12:34.644Z,14.25
2019-03-09T01:15:08.361Z,15.03
2019-03-09T01:17:39.229Z,16.97
2019-03-09T01:20:17.596Z,16.90
2019-03-09T01:22:48.506Z,16.93
2019-03-09T01:25:19.723Z,14.50
2019-03-09T01:27:50.425Z,15.40
2019-03-09T01:30:21.878Z,12.50
2019-03-09T01:32:52.709Z,15.03
2019-03-09T01:35:23.426Z,19.30
2019-03-09T01:37:53.867Z,14.33
2019-03-09T01:40:25.005Z,20.75
2019-03-09T01:42:55.886Z,18.20
2019-03-09T01:45:27.158Z,14.97
2019-03-09T01:47:58.383Z,17.83
2019-03-09T01:52:59.704Z,14.95
2019-03-09T01:55:31.041Z,12.33
2019-03-09T01:58:01.953Z,13.40
2019-03-09T02:00:33.280Z,13.62
2019-03-09T02:05:37.192Z,13.40
2019-03-09T02:08:06.810Z,11.25
2019-03-09T02:10:36.247Z,14.35
2019-03-09T02:13:05.853Z,10.72
2019-03-09T02:15:35.283Z,13.85
2019-03-09T02:18:05.833Z,14.15
2019-03-09T02:20:35.184Z,16.23
2019-03-09T02:23:05.471Z,9.22
2019-03-09T02:25:34.922Z,12.80
2019-03-09T02:28:04.421Z,12.03
2019-03-09T02:30:33.829Z,14.07
2019-03-09T02:33:03.476Z,11.48
2019-03-09T02:35:32.951Z,11.65
2019-03-09T02:38:03.990Z,10.85
2019-03-09T02:40:33.446Z,9.27
2019-03-09T02:43:02.876Z,7.17
2019-03-09T02:45:32.901Z,9.05
2019-03-09T02:48:02.275Z,9.73
2019-03-09T02:50:31.755Z,7.75
2019-03-09T02:53:01.109Z,7.22
2019-03-09T02:55:30.506Z,9.93
2019-03-09T02:57:59.865Z,7.05
2019-03-09T03:00:30.877Z,6.22
2019-03-09T03:03:02.052Z,5.90
2019-03-09T03:05:31.557Z,7.57
2019-03-09T03:08:00.969Z,6.55
2019-03-09T03:10:30.460Z,7.67
2019-03-09T03:13:00.007Z,7.58
2019-03-09T03:15:34.120Z,9.93
2019-03-09T03:18:04.069Z,8.95
2019-03-09T03:20:33.616Z,8.35
2019-03-09T03:23:03.053Z,9.75
2019-03-09T03:25:32.496Z,11.15
2019-03-09T03:28:01.863Z,12.60
2019-03-09T03:30:31.352Z,17.00
2019-03-09T03:33:00.838Z,12.25
2019-03-09T03:35:31.369Z,12.00
2019-03-09T03:38:00.727Z,11.95
2019-03-09T03:40:30.094Z,14.45
2019-03-09T03:42:59.499Z,18.27
2019-03-09T03:45:28.977Z,13.28
2019-03-09T03:47:58.430Z,15.00
2019-03-09T03:50:27.842Z,15.78
2019-03-09T03:52:57.228Z,13.05
2019-03-09T03:55:27.105Z,21.48
2019-03-09T03:57:56.444Z,15.20
2019-03-09T04:00:25.973Z,25.02
2019-03-09T04:02:55.467Z,20.50
2019-03-09T04:05:24.880Z,20.43
2019-03-09T04:07:54.414Z,19.10
2019-03-09T04:10:24.099Z,17.32
2019-03-09T04:12:53.825Z,16.05
2019-03-09T04:15:23.374Z,23.73
2019-03-09T04:17:52.743Z,13.95
2019-03-09T04:20:22.086Z,17.47
2019-03-09T04:22:51.449Z,16.82
2019-03-09T04:25:20.873Z,14.43
2019-03-09T04:27:50.354Z,19.82
2019-03-09T04:30:19.874Z,22.32
2019-03-09T04:32:49.302Z,17.48
2019-03-09T04:35:18.688Z,28.35
2019-03-09T04:37:48.111Z,22.67
2019-03-09T04:40:17.588Z,16.85
2019-03-09T04:42:46.941Z,27.22
2019-03-09T04:45:16.320Z,26.60
2019-03-09T04:47:45.786Z,21.20
2019-03-09T04:50:15.607Z,23.42
2019-03-09T04:52:44.964Z,21.77
2019-03-09T04:55:14.464Z,22.63
2019-03-09T04:57:43.850Z,24.45
2019-03-09T05:00:15.175Z,23.75
2019-03-09T05:02:44.589Z,18.62
2019-03-09T05:05:14.033Z,16.02
2019-03-09T05:07:49.559Z,17.00
2019-03-09T05:10:22.163Z,14.95
2019-03-09T05:13:00.734Z,18.30
2019-03-09T05:15:30.095Z,22.87
2019-03-09T05:17:59.456Z,16.50
2019-03-09T05:20:28.888Z,21.35
2019-03-09T05:22:58.623Z,23.45
2019-03-09T05:25:27.983Z,22.22
2019-03-09T05:27:57.366Z,29.57
2019-03-09T05:30:38.439Z,20.10
2019-03-09T05:33:08.007Z,19.40
2019-03-09T05:35:37.575Z,20.08
2019-03-09T05:38:07.073Z,20.17
2019-03-09T05:40:36.428Z,16.95
2019-03-09T05:43:06.154Z,22.10
2019-03-09T05:45:35.638Z,21.97
2019-03-09T05:48:06.062Z,20.43
2019-03-09T05:50:35.520Z,21.57
2019-03-09T05:53:13.328Z,26.05
2019-03-09T05:55:42.768Z,22.65
2019-03-09T05:58:12.179Z,17.60
2019-03-09T06:00:42.311Z,30.30
2019-03-09T06:03:11.690Z,27.55
2019-03-09T06:05:44.802Z,21.80
2019-03-09T06:08:14.293Z,33.45
2019-03-09T06:10:43.664Z,16.90
2019-03-09T06:13:13.128Z,33.80
2019-03-09T06:15:42.492Z,29.30
2019-03-09T06:18:13.399Z,31.42
2019-03-09T06:20:42.818Z,29.67
2019-03-09T06:23:12.167Z,18.65
2019-03-09T06:25:41.580Z,19.85
2019-03-09T06:28:11.133Z,23.87
2019-03-09T06:30:40.479Z,27.70
2019-03-09T06:33:27.144Z,18.85
2019-03-09T06:36:08.451Z,22.02
2019-03-09T06:38:52.054Z,35.10
2019-03-09T06:41:27.123Z,22.98
2019-03-09T06:43:56.478Z,23.10
2019-03-09T06:46:26.910Z,25.50
2019-03-09T06:48:56.275Z,23.65
2019-03-09T06:51:25.648Z,23.55
2019-03-09T06:53:55.080Z,26.12
2019-03-09T06:56:24.963Z,21.75
2019-03-09T06:58:54.391Z,36.05
2019-03-09T07:01:23.761Z,19.65
2019-03-09T07:03:53.181Z,24.65
2019-03-09T07:06:23.297Z,23.52
2019-03-09T07:08:52.645Z,25.10
2019-03-09T07:11:22.015Z,25.27
2019-03-09T07:13:53.130Z,21.48
2019-03-09T07:16:22.571Z,21.97
2019-03-09T07:18:52.168Z,17.20
2019-03-09T07:21:21.695Z,23.53
2019-03-09T07:23:51.029Z,23.47
2019-03-09T07:26:20.401Z,17.63
2019-03-09T07:28:49.869Z,25.40
2019-03-09T07:31:19.272Z,23.73
2019-03-09T07:33:51.825Z,21.73
2019-03-09T07:36:21.201Z,22.48
2019-03-09T07:38:50.597Z,27.40
2019-03-09T07:41:19.958Z,16.15
2019-03-09T07:43:49.346Z,25.68
2019-03-09T07:46:18.715Z,17.33
2019-03-09T07:48:48.081Z,25.60
2019-03-09T07:51:17.521Z,20.48
2019-03-09T07:53:46.932Z,17.25
2019-03-09T07:56:16.297Z,19.98
2019-03-09T07:58:45.666Z,22.13
2019-03-09T08:01:15.076Z,27.52
2019-03-09T08:03:44.453Z,25.32
2019-03-09T08:06:13.900Z,21.25
2019-03-09T08:08:43.270Z,21.42
2019-03-09T08:11:12.703Z,23.70
2019-03-09T08:13:42.096Z,22.75
2019-03-09T08:16:13.661Z,15.53
2019-03-09T08:21:11.602Z,26.33
2019-03-09T08:23:41.096Z,19.87
2019-03-09T08:26:10.450Z,18.45
2019-03-09T08:28:41.994Z,21.52
2019-03-09T08:31:11.579Z,18.07
2019-03-09T08:33:40.988Z,21.60
2019-03-09T08:36:10.496Z,27.68
2019-03-09T08:38:40.018Z,26.17
2019-03-09T08:41:09.465Z,24.12
2019-03-09T08:43:38.982Z,22.10
2019-03-09T08:46:08.609Z,23.60
2019-03-09T08:48:38.124Z,21.90
2019-03-09T08:51:07.553Z,20.65
2019-03-09T08:53:36.953Z,20.17
2019-03-09T08:56:06.446Z,22.98
2019-03-09T08:58:35.960Z,32.23
2019-03-09T09:01:06.184Z,20.82
2019-03-09T09:03:35.612Z,26.02
2019-03-09T09:06:05.984Z,23.50
2019-03-09T09:08:35.353Z,18.95
2019-03-09T09:11:05.641Z,22.62
2019-03-09T09:13:35.021Z,22.07
2019-03-09T09:16:04.469Z,28.67
2019-03-09T09:18:33.896Z,27.42
2019-03-09T09:21:03.329Z,21.70
2019-03-09T09:23:32.685Z,24.05
2019-03-09T09:26:02.051Z,26.57
2019-03-09T09:28:31.413Z,23.25
2019-03-09T09:31:00.808Z,16.45
2019-03-09T09:33:30.228Z,24.12
2019-03-09T09:35:59.577Z,26.85
2019-03-09T09:38:28.966Z,25.50
2019-03-09T09:40:58.381Z,24.65
2019-03-09T09:43:27.741Z,26.50
2019-03-09T09:45:57.127Z,20.17
2019-03-09T09:48:26.549Z,30.95
2019-03-09T09:50:55.888Z,28.50
2019-03-09T09:53:25.345Z,25.15
2019-03-09T09:55:54.818Z,28.47
2019-03-09T09:58:24.291Z,25.05
2019-03-09T10:00:53.660Z,31.10
2019-03-09T10:03:23.030Z,25.57
2019-03-09T10:05:52.521Z,17.75
2019-03-09T10:08:21.943Z,25.77
2019-03-09T10:10:51.297Z,25.12
2019-03-09T10:13:20.661Z,22.42
2019-03-09T10:15:51.592Z,21.02
2019-03-09T10:18:21.002Z,27.30
2019-03-09T10:20:50.355Z,19.17
2019-03-09T10:23:21.297Z,25.25
2019-03-09T10:25:50.733Z,21.80
2019-03-09T10:28:20.096Z,27.07
2019-03-09T10:30:49.647Z,28.32
2019-03-09T10:33:19.088Z,29.80
2019-03-09T10:35:50.805Z,20.95
2019-03-09T10:38:20.245Z,27.23
2019-03-09T10:40:49.671Z,22.52
2019-03-09T10:43:19.030Z,21.90
2019-03-09T10:45:48.485Z,22.95
2019-03-09T10:48:17.842Z,25.95
2019-03-09T10:50:47.205Z,25.70
2019-03-09T10:53:16.673Z,24.20
2019-03-09T10:55:46.203Z,26.65
2019-03-09T10:58:18.062Z,24.43
2019-03-09T11:00:47.494Z,41.15
2019-03-09T11:03:16.962Z,39.83
2019-03-09T11:05:46.474Z,25.30
2019-03-09T11:08:15.900Z,34.80
2019-03-09T11:10:45.287Z,30.17
2019-03-09T11:13:14.664Z,28.17
2019-03-09T11:15:44.038Z,31.55
2019-03-09T11:18:24.840Z,39.65
2019-03-09T11:23:24.490Z,31.07
2019-03-09T11:25:53.877Z,34.27
2019-03-09T11:28:23.305Z,38.90
2019-03-09T11:30:52.830Z,34.27
2019-03-09T11:33:22.215Z,43.60
2019-03-09T11:35:51.728Z,31.52
2019-03-09T11:38:29.883Z,36.95
2019-03-09T11:40:58.670Z,38.50
2019-03-09T11:43:27.400Z,38.53
2019-03-09T11:45:56.764Z,42.43
2019-03-09T11:48:26.214Z,38.58
2019-03-09T11:50:55.734Z,59.60
2019-03-09T11:53:25.102Z,49.33
2019-03-09T11:55:54.536Z,72.58
2019-03-09T11:58:26.407Z,47.55
2019-03-09T12:00:58.583Z,50.40
2019-03-09T12:03:28.020Z,52.00
2019-03-09T12:05:57.426Z,40.98
2019-03-09T12:08:26.902Z,45.73
2019-03-09T12:10:56.261Z,48.70
2019-03-09T12:13:28.313Z,54.20
2019-03-09T12:15:59.271Z,48.45
2019-03-09T12:18:28.900Z,59.50
2019-03-09T12:20:58.280Z,39.23
2019-03-09T12:23:29.272Z,62.83
2019-03-09T12:25:58.627Z,58.95
2019-03-09T12:28:28.082Z,52.80
2019-03-09T12:30:57.590Z,47.55
2019-03-09T12:33:27.005Z,59.05
2019-03-09T12:35:56.613Z,50.52
2019-03-09T12:38:26.136Z,66.20
2019-03-09T12:40:55.708Z,57.23
2019-03-09T12:43:25.265Z,55.38
2019-03-09T12:45:54.739Z,46.55
2019-03-09T12:48:25.272Z,43.87
2019-03-09T12:50:54.693Z,36.77
2019-03-09T12:53:24.222Z,47.48
2019-03-09T12:55:53.667Z,65.57
2019-03-09T12:58:23.289Z,70.03
2019-03-09T13:00:52.813Z,52.15
2019-03-09T13:03:22.222Z,45.58
2019-03-09T13:05:51.662Z,69.00
2019-03-09T13:08:22.699Z,55.12
2019-03-09T13:10:52.277Z,75.83
2019-03-09T13:13:21.771Z,61.68
2019-03-09T13:15:51.321Z,49.58
2019-03-09T13:18:20.715Z,49.77
2019-03-09T13:20:50.233Z,50.05
2019-03-09T13:23:19.779Z,51.58
2019-03-09T13:25:49.154Z,59.55
2019-03-09T13:28:18.689Z,54.38
2019-03-09T13:30:48.230Z,53.25
2019-03-09T13:33:17.665Z,51.58
2019-03-09T13:35:47.076Z,48.78
2019-03-09T13:38:16.551Z,58.63
2019-03-09T13:40:47.597Z,37.00
2019-03-09T13:43:17.053Z,54.23
2019-03-09T13:45:46.640Z,46.90
2019-03-09T13:48:17.155Z,47.13
2019-03-09T13:50:46.593Z,33.90
2019-03-09T13:53:16.181Z,53.97
2019-03-09T13:55:45.607Z,46.30
2019-03-09T13:58:15.298Z,36.90
2019-03-09T14:00:44.948Z,26.33
2019-03-09T14:03:14.484Z,44.08
2019-03-09T14:05:43.899Z,32.75
2019-03-09T14:08:13.430Z,37.63
2019-03-09T14:10:42.805Z,48.68
2019-03-09T14:13:13.402Z,53.13
2019-03-09T14:15:42.996Z,40.65
2019-03-09T14:18:12.429Z,44.43
2019-03-09T14:20:42.061Z,35.70
2019-03-09T14:23:11.574Z,31.48
2019-03-09T14:25:41.028Z,30.37
2019-03-09T14:28:13.143Z,35.93
2019-03-09T14:30:44.231Z,44.15
2019-03-09T14:33:13.594Z,56.80
2019-03-09T14:35:42.982Z,30.08
2019-03-09T14:38:12.781Z,32.88
2019-03-09T14:40:44.515Z,41.50
2019-03-09T14:43:15.826Z,40.08
2019-03-09T14:45:45.624Z,45.43
2019-03-09T14:48:15.311Z,39.33
2019-03-09T14:50:44.727Z,34.55
2019-03-09T14:53:14.443Z,38.17
2019-03-09T14:55:44.192Z,44.55
2019-03-09T14:58:13.655Z,49.13
2019-03-09T15:00:43.409Z,39.70
2019-03-09T15:03:12.988Z,40.33
2019-03-09T15:05:42.613Z,44.93
2019-03-09T15:08:12.048Z,50.13
2019-03-09T15:10:42.128Z,42.48
2019-03-09T15:13:11.723Z,29.80
2019-03-09T15:15:41.321Z,33.23
2019-03-09T15:18:10.810Z,38.37
2019-03-09T15:20:40.204Z,35.78
2019-03-09T15:23:09.630Z,37.80
2019-03-09T15:25:39.045Z,27.45
2019-03-09T15:28:08.599Z,33.78
2019-03-09T15:30:38.050Z,44.42
2019-03-09T15:33:07.568Z,35.20
2019-03-09T15:35:37.304Z,35.70
2019-03-09T15:38:06.881Z,38.45
2019-03-09T15:40:36.399Z,37.90
2019-03-09T15:43:05.892Z,39.00
2019-03-09T15:45:35.333Z,37.83
2019-03-09T15:48:05.538Z,47.56
2019-03-09T15:50:35.089Z,32.83
2019-03-09T15:53:05.862Z,42.55
2019-03-09T15:55:35.422Z,32.35
2019-03-09T15:58:05.435Z,29.06
2019-03-09T16:00:35.458Z,38.25
2019-03-09T16:03:05.867Z,32.38
2019-03-09T16:05:35.551Z,28.42
2019-03-09T16:08:05.240Z,41.02
2019-03-09T16:10:34.733Z,33.00
2019-03-09T16:13:04.409Z,28.02
2019-03-09T16:15:33.933Z,29.95
2019-03-09T16:18:03.407Z,31.07
2019-03-09T16:20:32.815Z,27.87
2019-03-09T16:23:02.249Z,38.33
2019-03-09T16:25:31.716Z,38.88
2019-03-09T16:28:01.081Z,23.87
2019-03-09T16:30:30.944Z,29.42
2019-03-09T16:33:00.512Z,37.90
2019-03-09T16:35:29.951Z,21.62
2019-03-09T16:37:59.319Z,29.95
2019-03-09T16:40:28.801Z,33.13
2019-03-09T16:42:58.152Z,29.85
2019-03-09T16:45:27.682Z,27.65
2019-03-09T16:47:57.185Z,27.52
2019-03-09T16:50:26.611Z,18.27
2019-03-09T16:52:55.971Z,26.23
2019-03-09T16:55:25.352Z,27.20
2019-03-09T16:57:55.029Z,25.62
2019-03-09T17:00:26.007Z,28.90
2019-03-09T17:02:55.450Z,32.17
2019-03-09T17:05:24.818Z,23.05
2019-03-09T17:07:55.568Z,22.25
2019-03-09T17:10:25.015Z,21.23
2019-03-09T17:12:54.526Z,24.50
2019-03-09T17:15:26.665Z,31.10
2019-03-09T17:17:56.247Z,27.02
2019-03-09T17:20:27.237Z,27.35
2019-03-09T17:23:00.175Z,24.98
2019-03-09T17:25:32.819Z,17.52
2019-03-09T17:28:02.260Z,26.33
2019-03-09T17:30:31.717Z,25.55
2019-03-09T17:33:01.124Z,23.80
2019-03-09T17:35:33.386Z,24.45
2019-03-09T17:38:02.739Z,25.32
2019-03-09T17:40:32.234Z,29.25
2019-03-09T17:43:01.665Z,30.02
2019-03-09T17:45:31.009Z,22.75
2019-03-09T17:48:00.609Z,20.27
2019-03-09T17:50:30.106Z,22.58
2019-03-09T17:52:59.546Z,13.30
2019-03-09T17:55:29.049Z,32.78
2019-03-09T17:57:58.497Z,12.10
2019-03-09T18:00:30.828Z,15.70
2019-03-09T18:03:00.700Z,17.25
2019-03-09T18:05:30.104Z,12.93
2019-03-09T18:07:59.516Z,18.90
2019-03-09T18:10:41.096Z,12.65
2019-03-09T18:13:10.544Z,17.15
2019-03-09T18:15:40.061Z,7.85
2019-03-09T18:18:09.489Z,7.47
2019-03-09T18:20:40.936Z,12.55
2019-03-09T18:23:10.364Z,12.43
2019-03-09T18:25:39.789Z,10.93
2019-03-09T18:28:09.217Z,9.50
2019-03-09T18:30:38.729Z,10.48
2019-03-09T18:33:08.122Z,10.38
2019-03-09T18:35:38.618Z,12.85
2019-03-09T18:38:07.981Z,10.28
2019-03-09T18:40:37.445Z,17.48
2019-03-09T18:43:06.825Z,24.05
2019-03-09T18:45:36.409Z,9.78
2019-03-09T18:48:06.837Z,14.37
2019-03-09T18:50:36.533Z,13.38
2019-03-09T18:53:08.066Z,16.35
2019-03-09T18:55:37.338Z,13.40
2019-03-09T18:58:06.766Z,15.08
2019-03-09T19:00:36.427Z,10.03
2019-03-09T19:03:06.028Z,11.18
2019-03-09T19:05:35.478Z,17.98
2019-03-09T19:08:05.692Z,19.64
2019-03-09T19:10:35.029Z,12.70
2019-03-09T19:13:04.706Z,17.23
2019-03-09T19:15:35.125Z,22.20
2019-03-09T19:18:05.486Z,14.28
2019-03-09T19:20:35.105Z,13.62
2019-03-09T19:23:05.545Z,13.28
2019-03-09T19:25:35.185Z,24.23
2019-03-09T19:28:05.488Z,13.28
2019-03-09T19:30:39.728Z,17.95
2019-03-09T19:33:12.665Z,24.17
2019-03-09T19:35:42.393Z,25.50
2019-03-09T19:38:15.174Z,18.07
2019-03-09T19:40:47.645Z,20.12
2019-03-09T19:43:19.214Z,22.70
2019-03-09T19:48:19.922Z,16.60
2019-03-09T19:50:49.447Z,23.40
2019-03-09T19:53:19.240Z,22.87
2019-03-09T19:55:49.200Z,18.90
2019-03-09T19:58:23.306Z,20.05
2019-03-09T20:00:55.040Z,21.48
2019-03-09T20:03:37.038Z,19.32
2019-03-09T20:06:14.316Z,20.57
2019-03-09T20:09:12.189Z,20.12
2019-03-09T20:11:46.984Z,21.48
2019-03-09T20:14:16.832Z,16.90
2019-03-09T20:16:46.468Z,21.85
2019-03-09T20:19:19.763Z,22.07
2019-03-09T20:21:53.103Z,14.43
2019-03-09T20:24:23.089Z,19.17
2019-03-09T20:26:52.681Z,21.90
2019-03-09T20:29:22.459Z,22.10
2019-03-09T20:31:52.377Z,22.65
2019-03-09T20:34:24.876Z,21.97
2019-03-09T20:36:54.549Z,18.57
2019-03-09T20:39:24.448Z,22.67
2019-03-09T20:41:56.552Z,19.35
2019-03-09T20:44:26.283Z,15.32
2019-03-09T20:46:56.133Z,19.25
2019-03-09T20:49:25.641Z,24.98
2019-03-09T20:51:55.258Z,31.42
2019-03-09T20:54:24.848Z,16.60
2019-03-09T20:56:54.274Z,15.63
2019-03-09T20:59:23.912Z,16.40
2019-03-09T21:02:05.745Z,22.52
2019-03-09T21:04:24.891Z,20.90
2019-03-09T21:06:54.468Z,21.80
2019-03-09T21:09:24.241Z,24.90
2019-03-09T21:11:55.047Z,24.95
2019-03-09T21:14:27.844Z,21.37
2019-03-09T21:16:59.798Z,37.17
2019-03-09T21:19:29.770Z,26.33
2019-03-09T21:21:59.547Z,20.08
2019-03-09T21:24:29.170Z,18.32
2019-03-09T21:26:58.822Z,29.57
2019-03-09T21:29:28.615Z,29.32
2019-03-09T21:31:58.273Z,16.15
2019-03-09T21:34:27.855Z,19.75
2019-03-09T21:36:59.091Z,17.90
2019-03-09T21:39:30.150Z,23.38
2019-03-09T21:42:01.530Z,23.47
2019-03-09T21:44:32.333Z,20.37
2019-03-09T21:47:02.060Z,22.50
2019-03-09T21:49:31.866Z,26.17
2019-03-09T21:52:01.729Z,23.47
2019-03-09T21:54:31.336Z,20.23
2019-03-09T21:57:00.929Z,21.00
2019-03-09T21:59:33.023Z,25.30
2019-03-09T22:02:02.744Z,22.73
2019-03-09T22:04:48.744Z,21.45
2019-03-09T22:07:27.611Z,19.50
2019-03-09T22:12:45.498Z,29.87
2019-03-09T22:17:50.902Z,22.82
2019-03-09T22:20:27.767Z,26.20
2019-03-09T22:22:58.477Z,25.55
2019-03-09T22:25:42.510Z,29.92
2019-03-09T22:28:15.243Z,26.45
2019-03-09T22:30:51.105Z,22.93
2019-03-09T22:33:28.458Z,30.90
2019-03-09T22:36:05.086Z,32.53
2019-03-09T22:38:39.379Z,18.67
2019-03-09T22:41:12.733Z,24.65
2019-03-09T22:43:44.429Z,31.83
2019-03-09T22:46:21.883Z,30.70
2019-03-09T22:49:20.283Z,27.02
2019-03-09T22:51:49.949Z,29.12
2019-03-09T22:54:20.299Z,24.12
2019-03-09T22:57:02.605Z,27.75
2019-03-09T22:59:45.669Z,28.32
2019-03-09T23:02:27.908Z,34.13
2019-03-09T23:04:56.255Z,28.65
2019-03-09T23:07:27.501Z,23.05
2019-03-09T23:10:15.887Z,22.13
2019-03-09T23:12:35.066Z,28.38
2019-03-09T23:15:11.608Z,25.52
2019-03-09T23:17:41.090Z,33.92
2019-03-09T23:20:12.700Z,21.70
2019-03-09T23:22:43.009Z,26.20
2019-03-09T23:25:24.102Z,24.65
2019-03-09T23:27:52.714Z,24.30
2019-03-09T23:30:27.346Z,26.57
2019-03-09T23:33:00.297Z,28.12
2019-03-09T23:35:30.326Z,29.15
2019-03-09T23:38:02.044Z,19.55
2019-03-09T23:40:36.392Z,29.40
2019-03-09T23:43:07.702Z,29.82
2019-03-09T23:45:39.004Z,34.75
2019-03-09T23:48:10.023Z,36.95
2019-03-09T23:50:39.691Z,22.63
2019-03-09T23:53:09.158Z,22.93
2019-03-09T23:55:39.003Z,31.73
2019-03-09T23:58:08.890Z,28.57
